Time;durP1;ratioP1;P1;durP2;ratioP2;P2;SDS_P1;SDS_P2;PMS_P1;PMS_P2;Temp;Humidity;BMP_temperature;BMP_pressure;BME280_temperature;BME280_humidity;BME280_pressure;Samples;Min_cycle;Max_cycle;Signal;HPM_P1;HPM_P2
2023/04/28 00:00:05;;;;;;;9.77;9.37;;;14.30;99.90;;;;;;4959404;28;20459;-80
2023/04/28 00:02:33;;;;;;;9.20;8.80;;;14.30;99.90;;;;;;4961467;28;20461;-80
2023/04/28 00:05:02;;;;;;;8.57;8.20;;;14.20;99.90;;;;;;4960025;28;20489;-81
2023/04/28 00:07:32;;;;;;;8.50;8.20;;;14.30;99.90;;;;;;4958220;28;20584;-82
2023/04/28 00:10:00;;;;;;;9.00;8.60;;;14.30;99.90;;;;;;4961011;28;20477;-81
2023/04/28 00:12:28;;;;;;;8.80;8.37;;;14.30;99.90;;;;;;4958504;28;20486;-81
2023/04/28 00:14:56;;;;;;;9.07;8.77;;;14.30;99.90;;;;;;4957606;28;20456;-82
2023/04/28 00:17:24;;;;;;;9.57;9.17;;;14.30;99.90;;;;;;4957345;28;22745;-80
2023/04/28 00:19:53;;;;;;;9.53;8.93;;;14.30;99.90;;;;;;4961664;28;20749;-81
2023/04/28 00:22:21;;;;;;;8.90;8.50;;;14.30;99.90;;;;;;4958362;28;20460;-81
2023/04/28 00:24:51;;;;;;;9.20;8.90;;;14.30;99.90;;;;;;4960754;28;20481;-81
2023/04/28 00:27:19;;;;;;;9.07;8.80;;;14.20;99.90;;;;;;4959945;28;20491;-81
2023/04/28 00:29:47;;;;;;;9.97;9.57;;;14.30;99.90;;;;;;4958328;28;20972;-82
2023/04/28 00:32:15;;;;;;;9.80;9.40;;;14.30;99.90;;;;;;4955123;28;20959;-82
2023/04/28 00:34:43;;;;;;;9.60;9.30;;;14.30;99.90;;;;;;4957354;28;20516;-80
2023/04/28 00:37:12;;;;;;;9.60;9.10;;;14.20;99.90;;;;;;4958072;28;20470;-82
2023/04/28 00:39:40;;;;;;;9.90;9.40;;;14.20;99.90;;;;;;4959140;28;20471;-82
2023/04/28 00:42:10;;;;;;;10.60;10.03;;;14.20;99.90;;;;;;4957412;28;20979;-82
2023/04/28 00:44:38;;;;;;;10.10;9.73;;;14.10;99.90;;;;;;4956378;28;20476;-81
2023/04/28 00:47:06;;;;;;;10.00;9.60;;;14.10;99.90;;;;;;4956295;28;20583;-81
2023/04/28 00:49:36;;;;;;;9.77;9.37;;;14.00;99.90;;;;;;4961903;28;20470;-81
2023/04/28 00:52:07;;;;;;;10.37;9.97;;;14.00;99.90;;;;;;4956597;28;20512;-81
2023/04/28 00:54:36;;;;;;;9.77;9.37;;;14.00;99.90;;;;;;4954804;28;20467;-82
2023/04/28 00:57:04;;;;;;;10.10;9.80;;;14.00;99.90;;;;;;4956417;28;20585;-82
2023/04/28 00:59:34;;;;;;;10.27;9.77;;;14.10;99.90;;;;;;4957538;28;22622;-82
2023/04/28 01:02:03;;;;;;;9.60;9.20;;;14.10;99.90;;;;;;4958762;28;20452;-79
2023/04/28 01:04:32;;;;;;;10.77;10.37;;;14.10;99.90;;;;;;4959017;28;20542;-82
2023/04/28 01:07:01;;;;;;;10.70;10.30;;;14.00;99.90;;;;;;4957359;28;20482;-81
2023/04/28 01:09:29;;;;;;;11.83;10.63;;;14.10;99.90;;;;;;4958716;28;21043;-81
2023/04/28 01:11:57;;;;;;;11.50;10.87;;;14.10;99.90;;;;;;4956236;28;20836;-81
2023/04/28 01:14:26;;;;;;;10.77;10.37;;;14.00;99.90;;;;;;4959033;28;20460;-82
2023/04/28 01:16:56;;;;;;;10.53;10.23;;;14.00;99.90;;;;;;4960287;28;20489;-80
2023/04/28 01:19:24;;;;;;;10.60;10.23;;;14.00;99.90;;;;;;4958321;28;20460;-81
2023/04/28 01:21:52;;;;;;;11.60;11.00;;;14.10;99.90;;;;;;4956705;28;20458;-81
2023/04/28 01:24:22;;;;;;;11.10;10.60;;;14.10;99.90;;;;;;4957225;28;20483;-80
2023/04/28 01:26:50;;;;;;;11.00;10.60;;;14.10;99.90;;;;;;4950289;28;20775;-81
2023/04/28 01:29:18;;;;;;;11.30;10.80;;;14.10;99.90;;;;;;4959097;28;21121;-79
2023/04/28 01:31:46;;;;;;;11.17;10.70;;;14.10;99.90;;;;;;4960177;28;20786;-80
2023/04/28 01:34:15;;;;;;;12.10;11.50;;;14.10;99.90;;;;;;4959272;28;20455;-81
2023/04/28 01:36:43;;;;;;;10.00;9.70;;;14.10;99.90;;;;;;4960877;28;20514;-81
2023/04/28 01:39:17;;;;;;;10.90;10.50;;;14.20;99.90;;;;;;4960924;28;20574;-79
2023/04/28 01:41:47;;;;;;;10.80;10.40;;;14.10;99.90;;;;;;4956018;28;20553;-80
2023/04/28 01:44:15;;;;;;;10.33;10.03;;;14.20;99.90;;;;;;4957088;28;20459;-81
2023/04/28 01:46:44;;;;;;;11.10;10.60;;;14.10;99.90;;;;;;4954957;28;21049;-82
2023/04/28 01:49:12;;;;;;;11.43;10.83;;;14.20;99.90;;;;;;4957359;28;21012;-80
2023/04/28 01:51:41;;;;;;;11.07;10.60;;;14.10;99.90;;;;;;4959950;28;20525;-81
2023/04/28 01:54:10;;;;;;;11.00;10.60;;;14.10;99.90;;;;;;4959034;28;20489;-80
2023/04/28 01:56:38;;;;;;;11.13;10.73;;;14.20;99.90;;;;;;4957437;28;20468;-81
2023/04/28 01:59:07;;;;;;;11.03;10.53;;;14.20;99.90;;;;;;4960700;28;20451;-82
2023/04/28 02:01:36;;;;;;;10.87;10.57;;;14.20;99.90;;;;;;4959362;28;20490;-80
2023/04/28 02:04:04;;;;;;;10.93;10.57;;;14.20;99.90;;;;;;4962751;28;20467;-81
2023/04/28 02:06:33;;;;;;;10.77;10.37;;;14.10;99.90;;;;;;4960185;28;20492;-81
2023/04/28 02:09:01;;;;;;;10.73;10.33;;;14.10;99.90;;;;;;4960578;28;20456;-82
2023/04/28 02:11:29;;;;;;;11.10;10.70;;;14.10;99.90;;;;;;4960418;28;20528;-83
2023/04/28 02:13:57;;;;;;;11.63;11.00;;;14.10;99.90;;;;;;4961398;28;20470;-82
2023/04/28 02:16:26;;;;;;;10.90;10.50;;;14.10;99.90;;;;;;4959632;28;20498;-82
2023/04/28 02:18:55;;;;;;;10.90;10.60;;;14.10;99.90;;;;;;4956258;28;20470;-82
2023/04/28 02:21:23;;;;;;;11.07;10.77;;;14.10;99.90;;;;;;4959156;28;20967;-81
2023/04/28 02:23:51;;;;;;;11.07;10.67;;;14.10;99.90;;;;;;4960340;28;20458;-82
2023/04/28 02:26:19;;;;;;;11.10;10.80;;;14.20;99.90;;;;;;4959153;28;20477;-82
2023/04/28 02:28:47;;;;;;;11.10;10.63;;;14.10;99.90;;;;;;4960275;28;20536;-82
2023/04/28 02:31:16;;;;;;;10.47;10.03;;;14.10;99.90;;;;;;4959655;28;20465;-82
2023/04/28 02:33:46;;;;;;;10.77;10.40;;;14.10;99.90;;;;;;4959874;28;21105;-81
2023/04/28 02:36:14;;;;;;;11.93;11.43;;;14.10;99.90;;;;;;4960338;28;20479;-82
2023/04/28 02:38:42;;;;;;;10.27;9.97;;;14.10;99.90;;;;;;4962571;28;20485;-81
2023/04/28 02:41:10;;;;;;;11.00;10.60;;;14.10;99.90;;;;;;4961171;28;20466;-82
2023/04/28 02:43:38;;;;;;;11.70;11.20;;;14.10;99.90;;;;;;4960563;28;20446;-82
2023/04/28 02:46:06;;;;;;;10.77;10.37;;;14.10;99.90;;;;;;4959281;28;20834;-83
2023/04/28 02:48:36;;;;;;;10.70;10.40;;;14.10;99.90;;;;;;4961029;28;22174;-82
2023/04/28 02:51:05;;;;;;;11.60;11.10;;;14.10;99.90;;;;;;4960885;28;20467;-80
2023/04/28 02:53:34;;;;;;;10.53;10.13;;;14.10;99.90;;;;;;4958158;28;20511;-80
2023/04/28 02:56:03;;;;;;;10.30;9.70;;;14.10;99.90;;;;;;4968576;28;20491;-80
2023/04/28 02:58:31;;;;;;;10.90;10.50;;;14.10;99.90;;;;;;4960546;28;20479;-80
2023/04/28 03:00:59;;;;;;;10.67;10.27;;;14.10;99.90;;;;;;4959026;28;21012;-80
2023/04/28 03:03:28;;;;;;;11.33;10.90;;;14.00;99.90;;;;;;4961573;28;20452;-81
2023/04/28 03:05:56;;;;;;;11.63;11.13;;;14.00;99.90;;;;;;4960286;28;20569;-79
2023/04/28 03:08:26;;;;;;;12.60;12.20;;;13.90;99.90;;;;;;4961822;28;20488;-79
2023/04/28 03:10:54;;;;;;;11.90;11.50;;;13.90;99.90;;;;;;4958675;28;20466;-82
2023/04/28 03:13:22;;;;;;;11.53;10.93;;;13.90;99.90;;;;;;4958109;28;20468;-81
2023/04/28 03:15:51;;;;;;;11.60;11.23;;;14.00;99.90;;;;;;4962252;28;20962;-81
2023/04/28 03:18:19;;;;;;;12.27;11.87;;;14.00;99.90;;;;;;4959648;28;20487;-81
2023/04/28 03:20:47;;;;;;;12.30;11.93;;;13.90;99.90;;;;;;4962946;28;20471;-80
2023/04/28 03:23:15;;;;;;;12.27;11.77;;;13.90;99.90;;;;;;4958836;28;20455;-82
2023/04/28 03:25:45;;;;;;;11.70;11.30;;;13.90;99.90;;;;;;4960922;28;20474;-82
2023/04/28 03:28:15;;;;;;;11.57;11.23;;;13.90;99.90;;;;;;4958803;28;20972;-82
2023/04/28 03:30:43;;;;;;;12.00;11.40;;;13.90;99.90;;;;;;4955492;28;20470;-82
2023/04/28 03:33:11;;;;;;;11.50;11.10;;;13.90;99.90;;;;;;4956129;28;20467;-81
2023/04/28 03:35:42;;;;;;;12.30;11.90;;;13.90;99.90;;;;;;4960866;28;20467;-82
2023/04/28 03:38:10;;;;;;;12.80;12.07;;;13.90;99.90;;;;;;4960238;28;20526;-82
2023/04/28 03:40:38;;;;;;;12.63;12.00;;;13.80;99.90;;;;;;4958620;28;20887;-82
2023/04/28 03:43:08;;;;;;;13.20;12.80;;;13.80;99.90;;;;;;4958979;28;20477;-82
2023/04/28 03:45:36;;;;;;;13.83;13.23;;;13.80;99.90;;;;;;4958791;28;20461;-81
2023/04/28 03:48:04;;;;;;;14.40;13.80;;;13.90;99.90;;;;;;4957935;28;20490;-81
2023/04/28 03:50:33;;;;;;;14.03;13.33;;;13.80;99.90;;;;;;4960176;28;20559;-81
2023/04/28 03:53:01;;;;;;;13.57;12.97;;;13.80;99.90;;;;;;4961047;28;20459;-82
2023/04/28 03:55:29;;;;;;;13.70;12.93;;;13.80;99.90;;;;;;4959962;28;20810;-81
2023/04/28 03:57:57;;;;;;;12.70;12.10;;;13.80;99.90;;;;;;4959681;28;20494;-80
2023/04/28 04:00:27;;;;;;;13.20;12.70;;;13.90;99.90;;;;;;4956575;28;20456;-81
2023/04/28 04:02:55;;;;;;;13.13;12.63;;;13.90;99.90;;;;;;4959106;28;20486;-81
2023/04/28 04:05:24;;;;;;;13.03;12.53;;;14.00;99.90;;;;;;4961726;28;20462;-81
2023/04/28 04:07:52;;;;;;;12.73;12.33;;;14.00;99.90;;;;;;4964800;28;20497;-81
2023/04/28 04:10:20;;;;;;;13.57;13.07;;;14.00;99.90;;;;;;4961128;28;20461;-80
2023/04/28 04:12:48;;;;;;;12.77;12.37;;;14.00;99.90;;;;;;4955425;28;20568;-79
2023/04/28 04:15:16;;;;;;;14.30;13.50;;;14.00;99.90;;;;;;4962144;28;21113;-80
2023/04/28 04:17:46;;;;;;;13.40;12.80;;;14.00;99.90;;;;;;4961214;28;20554;-80
2023/04/28 04:20:15;;;;;;;13.80;13.30;;;14.10;99.90;;;;;;4957890;28;20469;-81
2023/04/28 04:22:43;;;;;;;13.07;12.53;;;14.00;99.90;;;;;;4960992;28;20450;-79
2023/04/28 04:25:11;;;;;;;12.80;12.40;;;14.00;99.90;;;;;;4955675;28;20922;-81
2023/04/28 04:27:39;;;;;;;12.90;12.40;;;14.00;99.90;;;;;;4958333;28;21117;-81
2023/04/28 04:30:08;;;;;;;13.73;13.13;;;14.00;99.90;;;;;;4957660;28;20534;-81
2023/04/28 04:32:36;;;;;;;14.00;13.40;;;14.00;99.90;;;;;;4958688;28;20506;-80
2023/04/28 04:35:07;;;;;;;13.17;12.77;;;14.00;99.90;;;;;;4957505;28;20458;-81
2023/04/28 04:37:35;;;;;;;13.93;13.30;;;14.00;99.90;;;;;;4956140;28;21020;-82
2023/04/28 04:40:03;;;;;;;14.20;13.60;;;14.00;99.90;;;;;;4960996;28;20474;-81
2023/04/28 04:42:32;;;;;;;13.57;13.17;;;13.90;99.90;;;;;;4960871;28;20455;-82
2023/04/28 04:45:00;;;;;;;14.17;13.57;;;14.00;99.90;;;;;;4956786;28;20490;-81
2023/04/28 04:47:28;;;;;;;13.80;13.10;;;14.00;1.00;;;;;;4956628;28;20570;-82
2023/04/28 04:49:56;;;;;;;13.87;13.37;;;13.90;1.00;;;;;;4959469;28;20465;-82
2023/04/28 04:52:26;;;;;;;14.70;14.10;;;13.80;1.00;;;;;;4959189;28;20462;-82
2023/04/28 04:54:55;;;;;;;14.67;14.07;;;13.80;1.00;;;;;;4960590;28;20470;-82
2023/04/28 04:57:23;;;;;;;14.23;13.73;;;13.80;1.00;;;;;;4960084;28;20486;-83
2023/04/28 04:59:51;;;;;;;14.13;13.47;;;13.80;87.90;;;;;;4959239;28;20875;-82
2023/04/28 05:02:19;;;;;;;14.50;14.00;;;13.80;99.90;;;;;;4954355;28;21043;-81
2023/04/28 05:04:47;;;;;;;14.27;13.77;;;13.70;99.90;;;;;;4963212;28;20454;-81
2023/04/28 05:07:16;;;;;;;14.00;13.50;;;13.70;99.90;;;;;;4957638;28;20545;-82
2023/04/28 05:09:47;;;;;;;15.57;15.07;;;13.60;1.00;;;;;;4953490;28;20472;-80
2023/04/28 05:12:16;;;;;;;15.73;14.90;;;13.60;11.00;;;;;;4960025;28;20964;-82
2023/04/28 05:14:44;;;;;;;15.30;14.80;;;13.70;99.90;;;;;;4950872;28;20458;-80
2023/04/28 05:17:12;;;;;;;16.30;15.70;;;13.70;1.00;;;;;;4954797;28;20476;-80
2023/04/28 05:19:40;;;;;;;16.77;16.17;;;13.70;99.90;;;;;;4958206;28;20517;-79
2023/04/28 05:22:08;;;;;;;16.13;15.60;;;13.70;99.90;;;;;;4957147;28;20526;-82
2023/04/28 05:24:36;;;;;;;16.80;16.00;;;13.60;99.90;;;;;;4955864;28;20829;-80
2023/04/28 05:27:06;;;;;;;17.03;16.27;;;13.70;99.90;;;;;;4960129;28;20507;-80
2023/04/28 05:29:34;;;;;;;17.30;16.70;;;13.70;1.00;;;;;;4961180;28;20459;-80
2023/04/28 05:32:02;;;;;;;17.30;16.60;;;13.70;1.00;;;;;;4960058;28;20505;-81
2023/04/28 05:34:30;;;;;;;17.27;16.47;;;13.80;1.00;;;;;;4961180;28;20972;-81
2023/04/28 05:36:58;;;;;;;17.37;16.67;;;13.70;1.00;;;;;;4962173;28;20498;-80
2023/04/28 05:39:26;;;;;;;17.07;16.47;;;13.70;1.00;;;;;;4965317;28;20988;-80
2023/04/28 05:41:55;;;;;;;17.30;16.37;;;13.80;1.00;;;;;;4962215;28;20855;-81
2023/04/28 05:44:25;;;;;;;16.73;16.13;;;13.70;13.10;;;;;;4966471;28;20458;-81
2023/04/28 05:46:53;;;;;;;17.03;16.43;;;13.70;99.70;;;;;;4962525;28;20481;-81
2023/04/28 05:49:21;;;;;;;17.10;16.50;;;13.80;99.90;;;;;;4961649;28;20489;-81
2023/04/28 05:51:49;;;;;;;17.50;16.80;;;13.80;99.90;;;;;;4959892;28;20438;-80
2023/04/28 05:54:18;;;;;;;16.77;16.07;;;13.70;99.90;;;;;;4954854;28;20216;-82
2023/04/28 05:56:46;;;;;;;18.13;17.43;;;13.70;1.00;;;;;;4960430;28;20788;-81
2023/04/28 05:59:14;;;;;;;17.30;16.50;;;13.70;1.00;;;;;;4959148;28;20488;-81
2023/04/28 06:01:44;;;;;;;17.47;16.70;;;13.70;99.90;;;;;;4961356;28;20463;-81
2023/04/28 06:04:13;;;;;;;17.10;16.50;;;13.70;99.90;;;;;;4958400;28;21033;-82
2023/04/28 06:06:41;;;;;;;17.50;16.70;;;13.80;12.80;;;;;;4960213;28;20473;-82
2023/04/28 06:09:09;;;;;;;17.40;16.70;;;13.70;92.50;;;;;;4957089;28;20501;-81
2023/04/28 06:11:37;;;;;;;17.07;16.40;;;13.70;1.00;;;;;;4957621;28;20470;-80
2023/04/28 06:14:07;;;;;;;17.60;16.80;;;13.70;1.00;;;;;;4958609;28;20541;-81
2023/04/28 06:16:35;;;;;;;17.73;17.03;;;13.80;1.00;;;;;;4956224;28;20550;-79
2023/04/28 06:19:05;;;;;;;17.50;16.80;;;13.80;1.00;;;;;;4959371;28;20489;-80
2023/04/28 06:21:33;;;;;;;17.27;16.63;;;13.80;99.90;;;;;;4958964;28;20986;-81
2023/04/28 06:24:01;;;;;;;17.63;16.87;;;13.80;99.90;;;;;;4958231;28;20995;-81
2023/04/28 06:26:29;;;;;;;17.57;16.77;;;13.80;1.00;;;;;;4959166;28;20459;-81
2023/04/28 06:28:57;;;;;;;17.23;16.53;;;13.80;1.00;;;;;;4960233;28;20504;-82
2023/04/28 06:31:26;;;;;;;17.30;16.60;;;13.80;99.90;;;;;;4958989;28;20455;-81
2023/04/28 06:33:54;;;;;;;17.07;16.37;;;13.90;99.90;;;;;;4965271;28;20476;-80
2023/04/28 06:36:23;;;;;;;17.80;17.10;;;13.90;99.90;;;;;;4957166;28;21053;-79
2023/04/28 06:38:52;;;;;;;17.40;16.80;;;13.90;99.90;;;;;;4960971;28;20512;-80
2023/04/28 06:41:20;;;;;;;17.40;16.70;;;13.80;1.00;;;;;;4961301;28;20784;-80
2023/04/28 06:43:49;;;;;;;17.10;16.50;;;13.90;1.00;;;;;;4958290;28;20448;-78
2023/04/28 06:46:17;;;;;;;17.23;16.53;;;13.90;99.90;;;;;;4957855;28;20540;-80
2023/04/28 06:48:46;;;;;;;16.77;16.17;;;13.90;1.00;;;;;;4958617;28;20478;-81
2023/04/28 06:51:15;;;;;;;16.43;15.93;;;13.90;1.00;;;;;;4962155;28;20894;-82
2023/04/28 06:53:44;;;;;;;17.50;16.90;;;13.90;99.90;;;;;;4950315;28;20553;-84
2023/04/28 06:56:13;;;;;;;16.60;15.90;;;13.90;99.90;;;;;;4960875;28;20492;-82
2023/04/28 06:58:41;;;;;;;18.10;17.40;;;13.90;99.90;;;;;;4959866;28;20478;-81
2023/04/28 07:01:09;;;;;;;16.93;16.20;;;13.90;1.00;;;;;;4956730;28;20469;-80
2023/04/28 07:03:38;;;;;;;17.50;16.90;;;13.90;99.90;;;;;;4959059;28;20486;-80
2023/04/28 07:06:07;;;;;;;17.97;17.30;;;14.00;99.90;;;;;;4958891;28;20541;-80
2023/04/28 07:08:35;;;;;;;17.60;17.00;;;13.90;1.00;;;;;;4959409;28;21005;-82
2023/04/28 07:11:05;;;;;;;17.20;16.43;;;14.00;99.90;;;;;;4959325;28;20467;-79
2023/04/28 07:13:33;;;;;;;18.03;17.30;;;14.00;67.00;;;;;;4963768;28;20467;-80
2023/04/28 07:16:02;;;;;;;18.63;17.80;;;13.90;99.90;;;;;;4960170;28;20473;-83
2023/04/28 07:18:30;;;;;;;17.60;16.90;;;13.90;1.00;;;;;;4962489;28;20481;-82
2023/04/28 07:20:58;;;;;;;17.77;17.17;;;14.00;99.90;;;;;;4960460;28;20462;-82
2023/04/28 07:23:26;;;;;;;17.40;16.80;;;14.00;1.00;;;;;;4957148;28;20455;-79
2023/04/28 07:25:55;;;;;;;17.60;16.90;;;14.10;7.60;;;;;;4952314;28;20458;-80
2023/04/28 07:28:25;;;;;;;17.50;16.80;;;14.10;1.00;;;;;;4962281;28;20768;-80
2023/04/28 07:30:53;;;;;;;17.43;16.60;;;14.10;27.00;;;;;;4961771;28;20453;-80
2023/04/28 07:33:21;;;;;;;17.47;16.67;;;14.10;99.90;;;;;;4961572;28;20971;-80
2023/04/28 07:35:51;;;;;;;17.40;16.70;;;14.10;99.90;;;;;;4960114;28;20518;-81
2023/04/28 07:38:20;;;;;;;17.83;17.10;;;14.10;1.00;;;;;;4963443;28;20490;-81
2023/04/28 07:40:48;;;;;;;18.13;17.50;;;14.10;99.90;;;;;;4960602;28;20462;-79
2023/04/28 07:43:16;;;;;;;17.20;16.60;;;14.20;99.90;;;;;;4958582;28;20971;-80
2023/04/28 07:45:47;;;;;;;16.90;16.30;;;14.20;99.90;;;;;;4962588;28;21502;-81
2023/04/28 07:48:16;;;;;;;17.47;16.67;;;14.10;99.90;;;;;;4965210;28;20467;-82
2023/04/28 07:50:44;;;;;;;17.00;16.40;;;14.20;99.90;;;;;;4960667;28;20463;-80
2023/04/28 07:53:12;;;;;;;16.87;16.27;;;14.10;1.00;;;;;;4961704;28;20462;-81
2023/04/28 07:55:43;;;;;;;17.00;16.40;;;14.10;62.80;;;;;;4956356;28;20469;-78
2023/04/28 07:58:11;;;;;;;17.13;16.53;;;14.10;99.90;;;;;;4959740;28;20486;-81
2023/04/28 08:00:40;;;;;;;17.77;17.17;;;14.10;99.90;;;;;;4960132;28;20453;-81
2023/04/28 08:03:12;;;;;;;17.50;16.90;;;14.10;99.90;;;;;;4958862;28;20469;-81
2023/04/28 08:05:41;;;;;;;17.70;17.10;;;14.10;1.00;;;;;;4961236;28;20525;-80
2023/04/28 08:08:10;;;;;;;18.47;17.77;;;14.10;1.00;;;;;;4959607;28;20479;-81
2023/04/28 08:10:40;;;;;;;18.87;18.07;;;14.10;1.00;;;;;;4958120;28;20490;-80
2023/04/28 08:13:09;;;;;;;18.70;17.90;;;14.20;1.00;;;;;;4956890;28;20477;-80
2023/04/28 08:15:37;;;;;;;18.30;17.60;;;14.20;1.00;;;;;;4956696;28;20456;-81
2023/04/28 08:18:05;;;;;;;18.70;18.00;;;14.20;1.00;;;;;;4960309;28;20488;-80
2023/04/28 08:20:35;;;;;;;18.53;17.83;;;14.20;1.00;;;;;;4961642;28;20811;-81
2023/04/28 08:23:03;;;;;;;18.07;17.27;;;14.10;1.00;;;;;;4962244;28;20471;-80
2023/04/28 08:25:31;;;;;;;18.70;17.90;;;14.10;1.00;;;;;;4960538;28;20469;-81
2023/04/28 08:27:59;;;;;;;18.30;17.60;;;14.10;1.00;;;;;;4953881;28;20564;-81
2023/04/28 08:30:27;;;;;;;18.70;17.90;;;14.10;1.00;;;;;;4961206;28;20484;-80
2023/04/28 08:32:56;;;;;;;19.57;18.50;;;14.10;1.00;;;;;;4957350;28;20468;-80
2023/04/28 08:35:24;;;;;;;18.30;17.60;;;14.20;1.00;;;;;;4960559;28;20553;-81
2023/04/28 08:37:54;;;;;;;19.37;18.57;;;14.20;1.00;;;;;;4958117;28;21027;-78
2023/04/28 08:40:23;;;;;;;20.10;18.97;;;14.20;1.00;;;;;;4958839;28;20534;-80
2023/04/28 08:42:51;;;;;;;18.70;18.00;;;14.30;1.00;;;;;;4955973;28;20460;-80
2023/04/28 08:45:20;;;;;;;18.77;17.90;;;14.30;1.00;;;;;;4952719;28;20529;-80
2023/04/28 08:47:51;;;;;;;18.90;18.10;;;14.30;1.00;;;;;;4959733;28;21067;-80
2023/04/28 08:50:22;;;;;;;18.30;17.60;;;14.30;1.00;;;;;;4956049;28;21422;-80
2023/04/28 08:52:54;;;;;;;19.17;18.37;;;14.30;1.00;;;;;;4961640;28;20466;-79
2023/04/28 08:55:24;;;;;;;17.83;17.07;;;14.30;1.00;;;;;;4960024;28;20842;-80
2023/04/28 08:57:54;;;;;;;18.00;17.30;;;14.40;1.00;;;;;;4958671;28;20474;-79
2023/04/28 09:00:23;;;;;;;18.43;17.53;;;14.50;1.00;;;;;;4959237;28;20464;-80
2023/04/28 09:02:51;;;;;;;17.93;17.20;;;14.40;1.00;;;;;;4958512;28;20461;-81
2023/04/28 09:05:20;;;;;;;17.30;16.70;;;14.40;1.00;;;;;;4960069;28;21034;-79
2023/04/28 09:07:50;;;;;;;17.33;16.73;;;14.40;1.00;;;;;;4960168;28;20491;-80
2023/04/28 09:10:22;;;;;;;17.03;16.43;;;14.50;1.00;;;;;;4961810;28;20476;-81
2023/04/28 09:12:53;;;;;;;17.60;16.80;;;14.40;1.00;;;;;;4961262;28;20462;-80
2023/04/28 09:15:29;;;;;;;17.10;16.50;;;14.50;1.00;;;;;;4957178;28;20476;-80
2023/04/28 09:18:01;;;;;;;18.00;17.20;;;14.50;1.00;;;;;;4954628;28;20483;-80
2023/04/28 09:20:31;;;;;;;17.57;16.97;;;14.60;1.00;;;;;;4955929;28;20450;-80
2023/04/28 09:23:14;;;;;;;17.70;17.00;;;14.60;1.00;;;;;;4959051;28;20554;-80
2023/04/28 09:25:58;;;;;;;17.90;17.30;;;14.60;1.00;;;;;;4963399;28;20848;-80
2023/04/28 09:28:27;;;;;;;18.20;17.43;;;14.70;3.30;;;;;;4956600;28;20483;-80
2023/04/28 09:30:55;;;;;;;17.93;17.30;;;14.70;9.60;;;;;;4960857;28;20530;-80
2023/04/28 09:33:24;;;;;;;17.60;17.00;;;14.70;15.70;;;;;;4960748;28;20894;-80
2023/04/28 09:35:52;;;;;;;18.50;17.80;;;14.90;19.20;;;;;;4958253;28;20464;-80
2023/04/28 09:38:21;;;;;;;17.50;16.90;;;14.90;7.50;;;;;;4956287;28;20550;-79
2023/04/28 09:40:56;;;;;;;18.17;17.47;;;14.90;19.10;;;;;;4959837;28;20455;-80
2023/04/28 09:43:26;;;;;;;18.70;18.00;;;15.00;23.20;;;;;;4962912;28;21717;-80
2023/04/28 09:45:55;;;;;;;18.43;17.63;;;15.10;28.10;;;;;;4959378;28;20494;-80
2023/04/28 09:48:31;;;;;;;19.30;18.27;;;15.10;29.80;;;;;;4957832;28;20480;-80
2023/04/28 09:51:01;;;;;;;18.17;17.50;;;15.20;41.60;;;;;;4957909;28;20487;-80
2023/04/28 09:53:30;;;;;;;18.60;17.60;;;15.20;34.00;;;;;;4958554;28;20469;-81
2023/04/28 09:56:02;;;;;;;18.23;17.47;;;15.30;52.60;;;;;;4959391;28;20467;-80
2023/04/28 09:58:31;;;;;;;17.73;17.13;;;15.40;42.20;;;;;;4959709;28;20932;-80
2023/04/28 10:01:00;;;;;;;17.70;16.80;;;15.60;25.60;;;;;;4959848;28;20459;-80
2023/04/28 10:03:30;;;;;;;17.30;16.70;;;15.70;3.00;;;;;;4961515;28;20965;-80
2023/04/28 10:05:59;;;;;;;18.00;17.30;;;15.70;1.00;;;;;;4956107;28;20460;-80
2023/04/28 10:08:28;;;;;;;17.13;16.43;;;15.80;1.30;;;;;;4955991;28;20507;-80
2023/04/28 10:10:57;;;;;;;17.30;16.70;;;15.90;1.00;;;;;;4960193;28;20576;-80
2023/04/28 10:13:27;;;;;;;17.47;16.83;;;15.90;1.00;;;;;;4957886;28;20824;-80
2023/04/28 10:15:57;;;;;;;16.70;16.20;;;15.90;1.00;;;;;;4953780;28;20470;-81
2023/04/28 10:18:26;;;;;;;16.20;15.70;;;15.90;1.00;;;;;;4959264;28;21070;-80
2023/04/28 10:20:59;;;;;;;17.20;16.40;;;15.90;1.00;;;;;;4961408;28;21072;-80
2023/04/28 10:24:10;;;;;;;16.53;16.03;;;15.90;1.00;;;;;;4961832;28;20837;-81
2023/04/28 10:27:07;;;;;;;16.50;15.90;;;16.00;1.00;;;;;;4964586;28;20453;-79
2023/04/28 10:29:37;;;;;;;16.60;16.10;;;16.00;1.00;;;;;;4926275;28;21091;-80
2023/04/28 10:32:24;;;;;;;16.30;15.80;;;16.10;1.00;;;;;;4960129;28;20458;-81
2023/04/28 10:34:53;;;;;;;16.37;15.87;;;16.20;1.00;;;;;;4958292;28;20517;-81
2023/04/28 10:38:00;;;;;;;16.30;15.80;;;16.30;1.00;;;;;;4962657;28;20473;-81
2023/04/28 10:40:31;;;;;;;16.10;15.60;;;16.30;1.00;;;;;;4963149;28;20533;-81
2023/04/28 10:43:00;;;;;;;16.40;15.90;;;16.30;1.00;;;;;;4961977;28;20469;-79
2023/04/28 10:46:04;;;;;;;16.67;16.07;;;16.40;1.00;;;;;;4963175;28;20491;-82
2023/04/28 10:48:56;;;;;;;16.13;15.63;;;16.40;1.00;;;;;;4890890;29;20489;-80
2023/04/28 10:51:31;;;;;;;16.37;15.87;;;16.40;1.00;;;;;;4960952;28;20493;-82
2023/04/28 10:54:26;;;;;;;16.40;15.90;;;16.40;1.00;;;;;;4962383;28;20572;-81
2023/04/28 10:57:20;;;;;;;16.83;16.30;;;16.40;99.90;;;;;;4962371;28;20461;-80
2023/04/28 10:59:50;;;;;;;16.60;16.10;;;16.40;99.90;;;;;;4962820;28;20502;-81
2023/04/28 11:02:40;;;;;;;16.80;16.20;;;16.50;99.90;;;;;;4962828;28;20490;-81
2023/04/28 11:05:17;;;;;;;16.67;16.17;;;16.60;1.00;;;;;;4958510;28;20462;-80
2023/04/28 11:08:29;;;;;;;18.23;16.67;;;16.70;99.90;;;;;;4959559;28;21008;-80
2023/04/28 11:11:14;;;;;;;16.30;15.80;;;16.70;1.00;;;;;;4957761;28;20990;-80
2023/04/28 11:13:45;;;;;;;16.10;15.60;;;16.60;99.90;;;;;;4958767;28;20453;-80
2023/04/28 11:16:18;;;;;;;16.30;15.50;;;16.70;99.90;;;;;;4962520;28;20616;-80
2023/04/28 11:18:57;;;;;;;16.43;15.93;;;16.70;1.00;;;;;;4960436;28;20474;-80
2023/04/28 11:21:28;;;;;;;16.20;15.70;;;16.60;99.90;;;;;;4959607;28;21043;-81
2023/04/28 11:23:57;;;;;;;16.50;16.00;;;16.60;99.90;;;;;;4957950;28;20469;-80
2023/04/28 11:26:27;;;;;;;16.40;15.90;;;16.60;99.90;;;;;;4959195;28;20455;-80
2023/04/28 11:28:57;;;;;;;16.20;15.70;;;16.70;1.00;;;;;;4960708;28;20558;-79
2023/04/28 11:31:27;;;;;;;16.37;15.67;;;16.80;1.00;;;;;;4960382;28;20474;-81
2023/04/28 11:34:06;;;;;;;15.90;15.50;;;16.90;99.90;;;;;;4963621;28;20455;-80
2023/04/28 11:36:36;;;;;;;16.00;15.60;;;16.90;35.90;;;;;;4960101;28;20455;-83
2023/04/28 11:39:06;;;;;;;16.60;16.10;;;17.00;99.90;;;;;;4957042;28;21095;-82
2023/04/28 11:41:35;;;;;;;16.50;15.90;;;17.00;1.00;;;;;;4957902;28;20549;-83
2023/04/28 11:44:10;;;;;;;16.20;15.70;;;17.00;99.90;;;;;;4960486;28;20509;-83
2023/04/28 11:46:46;;;;;;;16.50;15.90;;;17.10;99.90;;;;;;4962126;28;20462;-82
2023/04/28 11:49:16;;;;;;;16.40;15.80;;;17.10;1.00;;;;;;4956377;28;20459;-84
2023/04/28 11:51:47;;;;;;;16.43;15.97;;;17.10;2.30;;;;;;4962360;28;20486;-83
2023/04/28 11:54:21;;;;;;;16.43;15.83;;;17.10;99.90;;;;;;4961795;28;20458;-84
2023/04/28 11:56:49;;;;;;;16.30;15.80;;;17.00;1.00;;;;;;4958086;28;20471;-84
2023/04/28 11:59:19;;;;;;;16.50;16.00;;;17.00;99.90;;;;;;4961141;28;20925;-82
2023/04/28 12:01:49;;;;;;;16.40;15.90;;;17.00;99.90;;;;;;4961913;28;20460;-82
2023/04/28 12:04:30;;;;;;;16.63;16.10;;;17.00;99.90;;;;;;4960283;28;20495;-82
2023/04/28 12:07:03;;;;;;;16.37;15.80;;;16.90;99.90;;;;;;4963121;28;20512;-81
2023/04/28 12:09:32;;;;;;;16.30;15.80;;;16.90;99.90;;;;;;4960971;28;20556;-83
2023/04/28 12:12:03;;;;;;;15.87;15.37;;;16.90;99.90;;;;;;4962651;28;20840;-83
2023/04/28 12:14:34;;;;;;;16.30;15.80;;;16.90;3.70;;;;;;4960122;28;20466;-83
2023/04/28 12:17:03;;;;;;;16.60;16.10;;;16.90;99.90;;;;;;4956643;28;20582;-83
2023/04/28 12:19:44;;;;;;;16.97;16.13;;;16.90;99.90;;;;;;4959587;28;20813;-83
2023/04/28 12:22:16;;;;;;;16.70;16.20;;;16.90;99.90;;;;;;4958413;28;20456;-83
2023/04/28 12:24:44;;;;;;;16.57;16.07;;;17.00;1.00;;;;;;4962066;28;21000;-83
2023/04/28 12:27:19;;;;;;;16.50;16.00;;;17.00;1.00;;;;;;4957841;28;20894;-83
2023/04/28 12:29:48;;;;;;;16.60;16.10;;;17.00;1.00;;;;;;4961314;28;20551;-82
2023/04/28 12:32:16;;;;;;;16.47;15.97;;;17.20;99.90;;;;;;4963469;28;20908;-83
2023/04/28 12:34:46;;;;;;;16.33;15.83;;;17.30;99.90;;;;;;4961648;28;20455;-82
2023/04/28 12:37:15;;;;;;;16.73;16.23;;;17.30;99.90;;;;;;4961909;28;20549;-84
2023/04/28 12:39:43;;;;;;;17.03;16.47;;;17.40;99.90;;;;;;4957503;28;20897;-84
2023/04/28 12:42:12;;;;;;;16.10;15.60;;;17.40;27.90;;;;;;4959138;28;20846;-84
2023/04/28 12:44:41;;;;;;;16.90;16.40;;;17.30;1.00;;;;;;4956181;28;20463;-84